sensor_id;sensor_type;location;lat;lon;timestamp;temperature;humidity
66102;HTU21D;52883;51.094;5.880;2023-09-30T00:00:47;9.93;118.99
66102;HTU21D;52883;51.094;5.880;2023-09-30T00:03:12;10.00;118.99
66102;HTU21D;52883;51.094;5.880;2023-09-30T00:05:38;10.05;118.99
66102;HTU21D;52883;51.094;5.880;2023-09-30T00:08:06;10.05;118.99
66102;HTU21D;52883;51.094;5.880;2023-09-30T00:10:32;9.99;118.99
66102;HTU21D;52883;51.094;5.880;2023-09-30T00:12:58;9.91;118.99
66102;HTU21D;52883;51.094;5.880;2023-09-30T00:15:24;9.84;118.99
66102;HTU21D;52883;51.094;5.880;2023-09-30T00:17:50;9.82;118.99
66102;HTU21D;52883;51.094;5.880;2023-09-30T00:20:16;9.76;118.99
66102;HTU21D;52883;51.094;5.880;2023-09-30T00:22:43;9.72;118.99
66102;HTU21D;52883;51.094;5.880;2023-09-30T00:25:09;9.71;118.99
66102;HTU21D;52883;51.094;5.880;2023-09-30T00:27:36;9.77;118.99
66102;HTU21D;52883;51.094;5.880;2023-09-30T00:30:03;9.83;118.99
66102;HTU21D;52883;51.094;5.880;2023-09-30T00:32:29;9.90;118.99
66102;HTU21D;52883;51.094;5.880;2023-09-30T00:34:56;9.83;118.99
66102;HTU21D;52883;51.094;5.880;2023-09-30T00:37:21;9.77;118.99
66102;HTU21D;52883;51.094;5.880;2023-09-30T00:39:47;9.72;118.99
66102;HTU21D;52883;51.094;5.880;2023-09-30T00:42:13;9.68;118.99
66102;HTU21D;52883;51.094;5.880;2023-09-30T00:44:38;9.68;118.99
66102;HTU21D;52883;51.094;5.880;2023-09-30T00:47:04;9.72;118.99
66102;HTU21D;52883;51.094;5.880;2023-09-30T00:49:31;9.72;118.99
66102;HTU21D;52883;51.094;5.880;2023-09-30T00:51:58;9.72;118.99
66102;HTU21D;52883;51.094;5.880;2023-09-30T00:54:26;9.79;118.99
66102;HTU21D;52883;51.094;5.880;2023-09-30T00:56:54;9.89;118.99
66102;HTU21D;52883;51.094;5.880;2023-09-30T00:59:21;9.91;118.99
66102;HTU21D;52883;51.094;5.880;2023-09-30T01:01:48;9.91;118.99
66102;HTU21D;52883;51.094;5.880;2023-09-30T01:04:14;9.97;118.99
66102;HTU21D;52883;51.094;5.880;2023-09-30T01:06:40;10.01;118.99
66102;HTU21D;52883;51.094;5.880;2023-09-30T01:09:07;10.06;118.99
66102;HTU21D;52883;51.094;5.880;2023-09-30T01:11:34;10.12;118.99
66102;HTU21D;52883;51.094;5.880;2023-09-30T01:14:00;10.15;118.99
66102;HTU21D;52883;51.094;5.880;2023-09-30T01:16:25;10.23;118.99
66102;HTU21D;52883;51.094;5.880;2023-09-30T01:18:51;10.29;118.99
66102;HTU21D;52883;51.094;5.880;2023-09-30T01:21:18;10.27;118.99
66102;HTU21D;52883;51.094;5.880;2023-09-30T01:23:44;10.29;118.99
66102;HTU21D;52883;51.094;5.880;2023-09-30T01:26:12;10.27;118.99
66102;HTU21D;52883;51.094;5.880;2023-09-30T01:28:39;10.21;118.99
66102;HTU21D;52883;51.094;5.880;2023-09-30T01:31:05;10.16;118.99
66102;HTU21D;52883;51.094;5.880;2023-09-30T01:33:32;10.10;118.99
66102;HTU21D;52883;51.094;5.880;2023-09-30T01:35:59;10.00;118.99
66102;HTU21D;52883;51.094;5.880;2023-09-30T01:38:25;9.88;118.99
66102;HTU21D;52883;51.094;5.880;2023-09-30T01:40:51;9.82;118.99
66102;HTU21D;52883;51.094;5.880;2023-09-30T01:43:17;9.80;118.99
66102;HTU21D;52883;51.094;5.880;2023-09-30T01:45:43;9.82;118.99
66102;HTU21D;52883;51.094;5.880;2023-09-30T01:48:10;9.75;118.99
66102;HTU21D;52883;51.094;5.880;2023-09-30T01:50:39;9.66;118.99
66102;HTU21D;52883;51.094;5.880;2023-09-30T01:53:06;9.62;118.99
66102;HTU21D;52883;51.094;5.880;2023-09-30T01:55:35;9.69;118.99
66102;HTU21D;52883;51.094;5.880;2023-09-30T01:58:01;9.80;118.99
66102;HTU21D;52883;51.094;5.880;2023-09-30T02:00:28;9.70;118.99
66102;HTU21D;52883;51.094;5.880;2023-09-30T02:02:57;9.57;118.99
66102;HTU21D;52883;51.094;5.880;2023-09-30T02:05:24;9.44;118.99
66102;HTU21D;52883;51.094;5.880;2023-09-30T02:07:50;9.42;118.99
66102;HTU21D;52883;51.094;5.880;2023-09-30T02:10:17;9.44;118.99
66102;HTU21D;52883;51.094;5.880;2023-09-30T02:12:44;9.61;118.99
66102;HTU21D;52883;51.094;5.880;2023-09-30T02:15:12;9.79;118.99
66102;HTU21D;52883;51.094;5.880;2023-09-30T02:17:39;9.80;118.99
66102;HTU21D;52883;51.094;5.880;2023-09-30T02:20:05;9.72;118.99
66102;HTU21D;52883;51.094;5.880;2023-09-30T02:22:38;9.68;118.99
66102;HTU21D;52883;51.094;5.880;2023-09-30T02:25:04;9.69;118.99
66102;HTU21D;52883;51.094;5.880;2023-09-30T02:27:32;9.70;118.99
66102;HTU21D;52883;51.094;5.880;2023-09-30T02:29:58;9.68;118.99
66102;HTU21D;52883;51.094;5.880;2023-09-30T02:32:24;9.52;118.99
66102;HTU21D;52883;51.094;5.880;2023-09-30T02:34:50;9.40;118.99
66102;HTU21D;52883;51.094;5.880;2023-09-30T02:37:16;9.35;118.99
66102;HTU21D;52883;51.094;5.880;2023-09-30T02:39:44;9.29;118.99
66102;HTU21D;52883;51.094;5.880;2023-09-30T02:42:10;9.26;118.99
66102;HTU21D;52883;51.094;5.880;2023-09-30T02:44:36;9.23;118.99
66102;HTU21D;52883;51.094;5.880;2023-09-30T02:47:01;9.33;118.99
66102;HTU21D;52883;51.094;5.880;2023-09-30T02:49:27;9.41;118.99
66102;HTU21D;52883;51.094;5.880;2023-09-30T02:51:54;9.36;118.99
66102;HTU21D;52883;51.094;5.880;2023-09-30T02:54:20;9.30;118.99
66102;HTU21D;52883;51.094;5.880;2023-09-30T02:56:45;9.23;118.99
66102;HTU21D;52883;51.094;5.880;2023-09-30T02:59:14;9.16;118.99
66102;HTU21D;52883;51.094;5.880;2023-09-30T03:01:42;9.11;118.99
66102;HTU21D;52883;51.094;5.880;2023-09-30T03:04:07;9.06;118.99
66102;HTU21D;52883;51.094;5.880;2023-09-30T03:06:34;9.04;118.99
66102;HTU21D;52883;51.094;5.880;2023-09-30T03:09:02;8.96;118.99
66102;HTU21D;52883;51.094;5.880;2023-09-30T03:11:30;8.95;118.99
66102;HTU21D;52883;51.094;5.880;2023-09-30T03:13:57;9.04;118.99
66102;HTU21D;52883;51.094;5.880;2023-09-30T03:16:23;9.15;118.99
66102;HTU21D;52883;51.094;5.880;2023-09-30T03:18:50;9.17;118.99
66102;HTU21D;52883;51.094;5.880;2023-09-30T03:21:16;9.03;118.99
66102;HTU21D;52883;51.094;5.880;2023-09-30T03:23:43;8.89;118.99
66102;HTU21D;52883;51.094;5.880;2023-09-30T03:26:08;8.75;118.99
66102;HTU21D;52883;51.094;5.880;2023-09-30T03:28:39;8.62;118.99
66102;HTU21D;52883;51.094;5.880;2023-09-30T03:31:05;8.50;118.99
66102;HTU21D;52883;51.094;5.880;2023-09-30T03:33:32;8.43;118.99
66102;HTU21D;52883;51.094;5.880;2023-09-30T03:35:58;8.44;118.99
66102;HTU21D;52883;51.094;5.880;2023-09-30T03:38:25;8.45;118.99
66102;HTU21D;52883;51.094;5.880;2023-09-30T03:40:51;8.41;118.99
66102;HTU21D;52883;51.094;5.880;2023-09-30T03:43:19;8.45;118.99
66102;HTU21D;52883;51.094;5.880;2023-09-30T03:45:44;8.51;118.99
66102;HTU21D;52883;51.094;5.880;2023-09-30T03:48:10;8.72;118.99
66102;HTU21D;52883;51.094;5.880;2023-09-30T03:50:37;8.72;118.99
66102;HTU21D;52883;51.094;5.880;2023-09-30T03:53:04;8.71;118.99
66102;HTU21D;52883;51.094;5.880;2023-09-30T03:55:31;8.80;118.99
66102;HTU21D;52883;51.094;5.880;2023-09-30T03:57:57;8.72;118.99
66102;HTU21D;52883;51.094;5.880;2023-09-30T04:00:23;8.66;118.99
66102;HTU21D;52883;51.094;5.880;2023-09-30T04:02:50;8.64;118.99
66102;HTU21D;52883;51.094;5.880;2023-09-30T04:05:20;8.59;118.99
66102;HTU21D;52883;51.094;5.880;2023-09-30T04:07:50;8.51;118.99
66102;HTU21D;52883;51.094;5.880;2023-09-30T04:10:16;8.49;118.99
66102;HTU21D;52883;51.094;5.880;2023-09-30T04:12:42;8.44;118.99
66102;HTU21D;52883;51.094;5.880;2023-09-30T04:15:07;8.32;118.99
66102;HTU21D;52883;51.094;5.880;2023-09-30T04:17:37;8.20;118.99
66102;HTU21D;52883;51.094;5.880;2023-09-30T04:20:05;8.15;118.99
66102;HTU21D;52883;51.094;5.880;2023-09-30T04:22:34;8.07;118.99
66102;HTU21D;52883;51.094;5.880;2023-09-30T04:25:00;8.03;118.99
66102;HTU21D;52883;51.094;5.880;2023-09-30T04:27:26;8.03;118.99
66102;HTU21D;52883;51.094;5.880;2023-09-30T04:29:52;8.09;118.99
66102;HTU21D;52883;51.094;5.880;2023-09-30T04:32:19;8.21;118.99
66102;HTU21D;52883;51.094;5.880;2023-09-30T04:34:45;8.34;118.99
66102;HTU21D;52883;51.094;5.880;2023-09-30T04:37:13;8.30;118.99
66102;HTU21D;52883;51.094;5.880;2023-09-30T04:39:39;8.31;118.99
66102;HTU21D;52883;51.094;5.880;2023-09-30T04:42:05;8.32;118.99
66102;HTU21D;52883;51.094;5.880;2023-09-30T04:44:30;8.33;118.99
66102;HTU21D;52883;51.094;5.880;2023-09-30T04:46:57;8.45;118.99
66102;HTU21D;52883;51.094;5.880;2023-09-30T04:49:23;8.52;118.99
66102;HTU21D;52883;51.094;5.880;2023-09-30T04:51:49;8.56;118.99
66102;HTU21D;52883;51.094;5.880;2023-09-30T04:54:14;8.61;118.99
66102;HTU21D;52883;51.094;5.880;2023-09-30T04:56:40;8.58;118.99
66102;HTU21D;52883;51.094;5.880;2023-09-30T04:59:06;8.50;118.99
66102;HTU21D;52883;51.094;5.880;2023-09-30T05:01:32;8.44;118.99
66102;HTU21D;52883;51.094;5.880;2023-09-30T05:04:32;8.41;118.99
66102;HTU21D;52883;51.094;5.880;2023-09-30T05:06:57;8.36;118.99
66102;HTU21D;52883;51.094;5.880;2023-09-30T05:09:23;8.31;118.99
66102;HTU21D;52883;51.094;5.880;2023-09-30T05:11:48;8.27;118.99
66102;HTU21D;52883;51.094;5.880;2023-09-30T05:14:15;8.24;118.99
66102;HTU21D;52883;51.094;5.880;2023-09-30T05:16:41;8.19;118.99
66102;HTU21D;52883;51.094;5.880;2023-09-30T05:19:08;8.19;118.99
66102;HTU21D;52883;51.094;5.880;2023-09-30T05:21:34;8.26;118.99
66102;HTU21D;52883;51.094;5.880;2023-09-30T05:24:01;8.35;118.99
66102;HTU21D;52883;51.094;5.880;2023-09-30T05:26:28;8.41;118.99
66102;HTU21D;52883;51.094;5.880;2023-09-30T05:28:53;8.37;118.99
66102;HTU21D;52883;51.094;5.880;2023-09-30T05:31:19;8.29;118.99
66102;HTU21D;52883;51.094;5.880;2023-09-30T05:33:45;8.30;118.99
66102;HTU21D;52883;51.094;5.880;2023-09-30T05:36:10;8.49;118.99
66102;HTU21D;52883;51.094;5.880;2023-09-30T05:38:39;8.58;118.99
66102;HTU21D;52883;51.094;5.880;2023-09-30T05:41:05;8.47;118.99
66102;HTU21D;52883;51.094;5.880;2023-09-30T05:43:32;8.35;118.99
66102;HTU21D;52883;51.094;5.880;2023-09-30T05:45:57;8.26;118.99
66102;HTU21D;52883;51.094;5.880;2023-09-30T05:48:24;8.27;118.99
66102;HTU21D;52883;51.094;5.880;2023-09-30T05:50:49;8.24;118.99
66102;HTU21D;52883;51.094;5.880;2023-09-30T05:53:15;8.18;118.99
66102;HTU21D;52883;51.094;5.880;2023-09-30T05:55:42;8.15;118.99
66102;HTU21D;52883;51.094;5.880;2023-09-30T05:58:13;8.26;118.99
66102;HTU21D;52883;51.094;5.880;2023-09-30T06:00:40;8.21;118.99
66102;HTU21D;52883;51.094;5.880;2023-09-30T06:03:07;8.14;118.99
66102;HTU21D;52883;51.094;5.880;2023-09-30T06:05:33;8.17;118.99
66102;HTU21D;52883;51.094;5.880;2023-09-30T06:08:02;8.16;118.99
66102;HTU21D;52883;51.094;5.880;2023-09-30T06:10:28;8.27;118.99
66102;HTU21D;52883;51.094;5.880;2023-09-30T06:12:54;8.50;118.99
66102;HTU21D;52883;51.094;5.880;2023-09-30T06:15:21;8.76;118.99
66102;HTU21D;52883;51.094;5.880;2023-09-30T06:17:52;8.89;118.99
66102;HTU21D;52883;51.094;5.880;2023-09-30T06:20:19;8.88;118.99
66102;HTU21D;52883;51.094;5.880;2023-09-30T06:22:48;8.92;118.99
66102;HTU21D;52883;51.094;5.880;2023-09-30T06:25:19;9.03;118.99
66102;HTU21D;52883;51.094;5.880;2023-09-30T06:27:47;9.06;118.99
66102;HTU21D;52883;51.094;5.880;2023-09-30T06:30:17;9.21;118.99
66102;HTU21D;52883;51.094;5.880;2023-09-30T06:32:43;9.26;118.99
66102;HTU21D;52883;51.094;5.880;2023-09-30T06:35:11;9.31;118.99
66102;HTU21D;52883;51.094;5.880;2023-09-30T06:37:40;9.40;118.99
66102;HTU21D;52883;51.094;5.880;2023-09-30T06:40:10;9.49;118.99
66102;HTU21D;52883;51.094;5.880;2023-09-30T06:42:40;9.65;118.99
66102;HTU21D;52883;51.094;5.880;2023-09-30T06:45:06;9.88;118.99
66102;HTU21D;52883;51.094;5.880;2023-09-30T06:47:37;10.08;118.99
66102;HTU21D;52883;51.094;5.880;2023-09-30T06:50:04;10.24;118.99
66102;HTU21D;52883;51.094;5.880;2023-09-30T06:52:38;10.38;118.99
66102;HTU21D;52883;51.094;5.880;2023-09-30T06:55:05;10.43;118.99
66102;HTU21D;52883;51.094;5.880;2023-09-30T06:57:36;10.63;118.99
66102;HTU21D;52883;51.094;5.880;2023-09-30T07:00:08;10.80;118.99
66102;HTU21D;52883;51.094;5.880;2023-09-30T07:02:35;10.88;118.99
66102;HTU21D;52883;51.094;5.880;2023-09-30T07:05:05;11.02;118.99
66102;HTU21D;52883;51.094;5.880;2023-09-30T07:07:31;11.17;118.99
66102;HTU21D;52883;51.094;5.880;2023-09-30T07:09:57;11.25;118.99
66102;HTU21D;52883;51.094;5.880;2023-09-30T07:12:23;11.33;118.99
66102;HTU21D;52883;51.094;5.880;2023-09-30T07:14:48;11.44;118.99
66102;HTU21D;52883;51.094;5.880;2023-09-30T07:17:14;11.54;118.99
66102;HTU21D;52883;51.094;5.880;2023-09-30T07:19:39;11.60;118.99
66102;HTU21D;52883;51.094;5.880;2023-09-30T07:22:05;11.68;118.99
66102;HTU21D;52883;51.094;5.880;2023-09-30T07:24:31;11.76;118.99
66102;HTU21D;52883;51.094;5.880;2023-09-30T07:26:56;11.91;118.99
66102;HTU21D;52883;51.094;5.880;2023-09-30T07:29:22;12.10;118.99
66102;HTU21D;52883;51.094;5.880;2023-09-30T07:31:48;12.23;118.99
66102;HTU21D;52883;51.094;5.880;2023-09-30T07:34:16;12.37;118.99
66102;HTU21D;52883;51.094;5.880;2023-09-30T07:36:42;12.47;118.99
66102;HTU21D;52883;51.094;5.880;2023-09-30T07:39:08;12.59;118.99
66102;HTU21D;52883;51.094;5.880;2023-09-30T07:41:37;12.70;118.99
66102;HTU21D;52883;51.094;5.880;2023-09-30T07:44:03;12.79;118.99
66102;HTU21D;52883;51.094;5.880;2023-09-30T07:46:28;12.92;118.99
66102;HTU21D;52883;51.094;5.880;2023-09-30T07:48:54;13.00;118.99
66102;HTU21D;52883;51.094;5.880;2023-09-30T07:51:20;13.11;118.99
66102;HTU21D;52883;51.094;5.880;2023-09-30T07:53:46;13.25;118.99
66102;HTU21D;52883;51.094;5.880;2023-09-30T07:56:13;13.38;118.99
66102;HTU21D;52883;51.094;5.880;2023-09-30T07:58:39;13.56;118.99
66102;HTU21D;52883;51.094;5.880;2023-09-30T08:01:05;13.77;118.99
66102;HTU21D;52883;51.094;5.880;2023-09-30T08:03:30;13.96;118.99
66102;HTU21D;52883;51.094;5.880;2023-09-30T08:05:56;14.12;118.99
66102;HTU21D;52883;51.094;5.880;2023-09-30T08:08:23;14.25;118.99
66102;HTU21D;52883;51.094;5.880;2023-09-30T08:10:50;14.32;118.99
66102;HTU21D;52883;51.094;5.880;2023-09-30T08:13:15;14.34;118.99
66102;HTU21D;52883;51.094;5.880;2023-09-30T08:15:42;14.47;118.99
66102;HTU21D;52883;51.094;5.880;2023-09-30T08:18:08;14.54;118.99
66102;HTU21D;52883;51.094;5.880;2023-09-30T08:20:34;14.63;118.99
66102;HTU21D;52883;51.094;5.880;2023-09-30T08:22:59;14.71;118.99
66102;HTU21D;52883;51.094;5.880;2023-09-30T08:25:25;14.82;118.99
66102;HTU21D;52883;51.094;5.880;2023-09-30T08:27:51;15.06;118.99
66102;HTU21D;52883;51.094;5.880;2023-09-30T08:30:17;15.31;118.99
66102;HTU21D;52883;51.094;5.880;2023-09-30T08:32:43;15.49;118.99
66102;HTU21D;52883;51.094;5.880;2023-09-30T08:35:09;15.53;118.99
66102;HTU21D;52883;51.094;5.880;2023-09-30T08:37:35;15.56;118.99
66102;HTU21D;52883;51.094;5.880;2023-09-30T08:40:01;15.58;118.99
66102;HTU21D;52883;51.094;5.880;2023-09-30T08:42:27;15.86;118.99
66102;HTU21D;52883;51.094;5.880;2023-09-30T08:44:58;15.97;118.99
66102;HTU21D;52883;51.094;5.880;2023-09-30T08:47:26;16.01;118.99
66102;HTU21D;52883;51.094;5.880;2023-09-30T08:49:57;16.00;118.99
66102;HTU21D;52883;51.094;5.880;2023-09-30T08:52:32;16.11;118.99
66102;HTU21D;52883;51.094;5.880;2023-09-30T08:54:57;16.40;118.99
66102;HTU21D;52883;51.094;5.880;2023-09-30T08:57:24;16.71;118.99
66102;HTU21D;52883;51.094;5.880;2023-09-30T08:59:52;17.03;118.99
66102;HTU21D;52883;51.094;5.880;2023-09-30T09:02:18;17.16;118.99
66102;HTU21D;52883;51.094;5.880;2023-09-30T09:04:45;17.25;118.99
66102;HTU21D;52883;51.094;5.880;2023-09-30T09:07:11;17.30;118.99
66102;HTU21D;52883;51.094;5.880;2023-09-30T09:09:36;17.17;118.99
66102;HTU21D;52883;51.094;5.880;2023-09-30T09:12:02;16.99;118.99
66102;HTU21D;52883;51.094;5.880;2023-09-30T09:14:38;16.89;118.99
66102;HTU21D;52883;51.094;5.880;2023-09-30T09:17:08;16.76;118.99
66102;HTU21D;52883;51.094;5.880;2023-09-30T09:19:34;16.80;118.99
66102;HTU21D;52883;51.094;5.880;2023-09-30T09:22:01;16.90;118.99
66102;HTU21D;52883;51.094;5.880;2023-09-30T09:24:34;17.13;118.99
66102;HTU21D;52883;51.094;5.880;2023-09-30T09:29:30;17.70;118.99
66102;HTU21D;52883;51.094;5.880;2023-09-30T09:34:35;18.25;118.99
66102;HTU21D;52883;51.094;5.880;2023-09-30T09:39:38;18.62;118.99
66102;HTU21D;52883;51.094;5.880;2023-09-30T09:42:04;18.70;118.99
66102;HTU21D;52883;51.094;5.880;2023-09-30T09:44:29;18.88;118.99
66102;HTU21D;52883;51.094;5.880;2023-09-30T09:46:57;19.08;118.99
66102;HTU21D;52883;51.094;5.880;2023-09-30T09:49:24;19.25;118.99
66102;HTU21D;52883;51.094;5.880;2023-09-30T09:51:52;19.33;118.99
66102;HTU21D;52883;51.094;5.880;2023-09-30T09:54:19;19.43;118.99
66102;HTU21D;52883;51.094;5.880;2023-09-30T09:56:49;19.58;118.99
66102;HTU21D;52883;51.094;5.880;2023-09-30T09:59:15;19.81;118.99
66102;HTU21D;52883;51.094;5.880;2023-09-30T10:01:41;19.82;118.99
66102;HTU21D;52883;51.094;5.880;2023-09-30T10:04:10;19.81;118.99
66102;HTU21D;52883;51.094;5.880;2023-09-30T10:06:40;19.89;118.99
66102;HTU21D;52883;51.094;5.880;2023-09-30T10:09:10;20.13;118.99
66102;HTU21D;52883;51.094;5.880;2023-09-30T10:11:38;20.31;118.99
66102;HTU21D;52883;51.094;5.880;2023-09-30T10:14:05;20.34;118.99
66102;HTU21D;52883;51.094;5.880;2023-09-30T10:19:17;20.35;118.99
66102;HTU21D;52883;51.094;5.880;2023-09-30T10:24:46;20.66;118.99
66102;HTU21D;52883;51.094;5.880;2023-09-30T10:35:17;21.05;118.99
66102;HTU21D;52883;51.094;5.880;2023-09-30T10:37:44;21.35;118.99
66102;HTU21D;52883;51.094;5.880;2023-09-30T10:40:10;21.58;118.99
66102;HTU21D;52883;51.094;5.880;2023-09-30T10:42:50;21.80;118.99
66102;HTU21D;52883;51.094;5.880;2023-09-30T10:50:54;22.17;118.99
66102;HTU21D;52883;51.094;5.880;2023-09-30T10:53:21;22.24;118.99
66102;HTU21D;52883;51.094;5.880;2023-09-30T10:55:54;22.42;118.99
66102;HTU21D;52883;51.094;5.880;2023-09-30T10:58:20;22.68;118.99
66102;HTU21D;52883;51.094;5.880;2023-09-30T11:00:53;22.80;118.99
66102;HTU21D;52883;51.094;5.880;2023-09-30T11:03:22;22.85;118.99
66102;HTU21D;52883;51.094;5.880;2023-09-30T11:05:48;22.88;118.99
66102;HTU21D;52883;51.094;5.880;2023-09-30T11:08:21;23.11;118.99
66102;HTU21D;52883;51.094;5.880;2023-09-30T11:10:49;23.28;118.99
66102;HTU21D;52883;51.094;5.880;2023-09-30T11:13:19;23.40;118.99
66102;HTU21D;52883;51.094;5.880;2023-09-30T11:15:46;23.24;118.99
66102;HTU21D;52883;51.094;5.880;2023-09-30T11:18:15;23.34;118.99
66102;HTU21D;52883;51.094;5.880;2023-09-30T11:20:42;23.60;118.99
66102;HTU21D;52883;51.094;5.880;2023-09-30T11:23:11;24.12;118.99
66102;HTU21D;52883;51.094;5.880;2023-09-30T11:25:38;24.24;118.99
66102;HTU21D;52883;51.094;5.880;2023-09-30T11:28:15;24.57;118.99
66102;HTU21D;52883;51.094;5.880;2023-09-30T11:31:13;24.86;118.99
66102;HTU21D;52883;51.094;5.880;2023-09-30T11:33:53;25.16;118.99
66102;HTU21D;52883;51.094;5.880;2023-09-30T11:36:20;25.00;118.99
66102;HTU21D;52883;51.094;5.880;2023-09-30T11:38:48;25.01;118.99
66102;HTU21D;52883;51.094;5.880;2023-09-30T11:41:16;25.35;118.99
66102;HTU21D;52883;51.094;5.880;2023-09-30T11:44:06;25.60;118.99
66102;HTU21D;52883;51.094;5.880;2023-09-30T11:46:57;25.74;118.99
66102;HTU21D;52883;51.094;5.880;2023-09-30T11:49:28;25.67;118.99
66102;HTU21D;52883;51.094;5.880;2023-09-30T11:52:04;25.54;118.99
66102;HTU21D;52883;51.094;5.880;2023-09-30T11:57:16;25.50;118.99
66102;HTU21D;52883;51.094;5.880;2023-09-30T11:59:46;25.56;118.99
66102;HTU21D;52883;51.094;5.880;2023-09-30T12:02:13;25.79;118.99
66102;HTU21D;52883;51.094;5.880;2023-09-30T12:04:41;25.84;118.99
66102;HTU21D;52883;51.094;5.880;2023-09-30T12:07:07;25.84;118.99
66102;HTU21D;52883;51.094;5.880;2023-09-30T12:09:34;25.63;118.99
66102;HTU21D;52883;51.094;5.880;2023-09-30T12:12:03;25.57;118.99
66102;HTU21D;52883;51.094;5.880;2023-09-30T12:14:29;25.71;118.99
66102;HTU21D;52883;51.094;5.880;2023-09-30T12:16:57;25.92;118.99
66102;HTU21D;52883;51.094;5.880;2023-09-30T12:19:22;25.96;118.99
66102;HTU21D;52883;51.094;5.880;2023-09-30T12:21:48;25.87;118.99
66102;HTU21D;52883;51.094;5.880;2023-09-30T12:24:15;26.06;118.99
66102;HTU21D;52883;51.094;5.880;2023-09-30T12:26:51;26.22;118.99
66102;HTU21D;52883;51.094;5.880;2023-09-30T12:29:18;26.35;118.99
66102;HTU21D;52883;51.094;5.880;2023-09-30T12:31:45;26.35;118.99
66102;HTU21D;52883;51.094;5.880;2023-09-30T12:34:11;26.23;118.99
66102;HTU21D;52883;51.094;5.880;2023-09-30T12:36:38;26.31;114.91
66102;HTU21D;52883;51.094;5.880;2023-09-30T12:39:04;26.16;118.99
66102;HTU21D;52883;51.094;5.880;2023-09-30T12:41:39;26.10;118.99
66102;HTU21D;52883;51.094;5.880;2023-09-30T12:44:06;26.19;118.99
66102;HTU21D;52883;51.094;5.880;2023-09-30T12:46:32;26.23;118.99
66102;HTU21D;52883;51.094;5.880;2023-09-30T12:49:11;26.11;118.99
66102;HTU21D;52883;51.094;5.880;2023-09-30T12:51:37;26.13;118.99
66102;HTU21D;52883;51.094;5.880;2023-09-30T12:54:03;26.28;118.99
66102;HTU21D;52883;51.094;5.880;2023-09-30T12:56:30;26.22;118.99
66102;HTU21D;52883;51.094;5.880;2023-09-30T12:58:56;26.06;118.99
66102;HTU21D;52883;51.094;5.880;2023-09-30T13:01:22;25.76;118.99
66102;HTU21D;52883;51.094;5.880;2023-09-30T13:03:48;25.59;118.99
66102;HTU21D;52883;51.094;5.880;2023-09-30T13:06:15;25.53;118.99
66102;HTU21D;52883;51.094;5.880;2023-09-30T13:08:42;25.43;118.99
66102;HTU21D;52883;51.094;5.880;2023-09-30T13:11:08;25.23;118.99
66102;HTU21D;52883;51.094;5.880;2023-09-30T13:13:34;25.00;118.99
66102;HTU21D;52883;51.094;5.880;2023-09-30T13:16:00;24.82;118.99
66102;HTU21D;52883;51.094;5.880;2023-09-30T13:18:27;24.69;118.99
66102;HTU21D;52883;51.094;5.880;2023-09-30T13:20:52;24.58;118.99
66102;HTU21D;52883;51.094;5.880;2023-09-30T13:23:19;24.64;118.99
66102;HTU21D;52883;51.094;5.880;2023-09-30T13:25:45;24.68;118.99
66102;HTU21D;52883;51.094;5.880;2023-09-30T13:28:10;24.75;118.99
66102;HTU21D;52883;51.094;5.880;2023-09-30T13:30:37;24.76;118.99
66102;HTU21D;52883;51.094;5.880;2023-09-30T13:33:03;24.64;118.99
66102;HTU21D;52883;51.094;5.880;2023-09-30T13:35:29;24.46;118.99
66102;HTU21D;52883;51.094;5.880;2023-09-30T13:37:54;24.40;118.99
66102;HTU21D;52883;51.094;5.880;2023-09-30T13:40:20;24.30;118.99
66102;HTU21D;52883;51.094;5.880;2023-09-30T13:42:46;24.25;118.99
66102;HTU21D;52883;51.094;5.880;2023-09-30T13:45:13;24.26;118.99
66102;HTU21D;52883;51.094;5.880;2023-09-30T13:47:38;24.23;118.99
66102;HTU21D;52883;51.094;5.880;2023-09-30T13:50:05;24.21;118.99
66102;HTU21D;52883;51.094;5.880;2023-09-30T13:52:34;24.23;118.99
66102;HTU21D;52883;51.094;5.880;2023-09-30T13:55:00;24.20;118.99
66102;HTU21D;52883;51.094;5.880;2023-09-30T13:57:26;24.20;118.99
66102;HTU21D;52883;51.094;5.880;2023-09-30T13:59:52;24.23;118.99
66102;HTU21D;52883;51.094;5.880;2023-09-30T14:02:17;24.19;118.99
66102;HTU21D;52883;51.094;5.880;2023-09-30T14:04:43;24.01;118.99
66102;HTU21D;52883;51.094;5.880;2023-09-30T14:07:09;23.89;118.99
66102;HTU21D;52883;51.094;5.880;2023-09-30T14:09:35;23.79;118.99
66102;HTU21D;52883;51.094;5.880;2023-09-30T14:12:01;23.73;118.99
66102;HTU21D;52883;51.094;5.880;2023-09-30T14:14:26;23.71;118.99
66102;HTU21D;52883;51.094;5.880;2023-09-30T14:16:52;23.46;118.99
66102;HTU21D;52883;51.094;5.880;2023-09-30T14:19:18;23.26;118.99
66102;HTU21D;52883;51.094;5.880;2023-09-30T14:21:43;22.98;118.99
66102;HTU21D;52883;51.094;5.880;2023-09-30T14:24:10;22.73;118.99
66102;HTU21D;52883;51.094;5.880;2023-09-30T14:26:36;22.49;118.99
66102;HTU21D;52883;51.094;5.880;2023-09-30T14:29:02;22.35;118.99
66102;HTU21D;52883;51.094;5.880;2023-09-30T14:31:27;22.22;118.99
66102;HTU21D;52883;51.094;5.880;2023-09-30T14:33:53;21.90;118.99
66102;HTU21D;52883;51.094;5.880;2023-09-30T14:36:18;21.68;118.99
66102;HTU21D;52883;51.094;5.880;2023-09-30T14:38:45;21.35;118.99
66102;HTU21D;52883;51.094;5.880;2023-09-30T14:41:11;21.03;118.99
66102;HTU21D;52883;51.094;5.880;2023-09-30T14:43:40;20.88;118.99
66102;HTU21D;52883;51.094;5.880;2023-09-30T14:46:06;20.85;118.99
66102;HTU21D;52883;51.094;5.880;2023-09-30T14:48:31;20.74;118.99
66102;HTU21D;52883;51.094;5.880;2023-09-30T14:50:57;20.69;118.99
66102;HTU21D;52883;51.094;5.880;2023-09-30T14:53:24;20.69;118.99
66102;HTU21D;52883;51.094;5.880;2023-09-30T14:55:50;20.72;118.99
66102;HTU21D;52883;51.094;5.880;2023-09-30T14:58:16;20.66;118.99
66102;HTU21D;52883;51.094;5.880;2023-09-30T15:00:43;20.73;118.99
66102;HTU21D;52883;51.094;5.880;2023-09-30T15:03:08;20.81;118.99
66102;HTU21D;52883;51.094;5.880;2023-09-30T15:05:34;20.86;118.99
66102;HTU21D;52883;51.094;5.880;2023-09-30T15:08:00;20.92;118.99
66102;HTU21D;52883;51.094;5.880;2023-09-30T15:10:29;20.93;118.99
66102;HTU21D;52883;51.094;5.880;2023-09-30T15:12:55;20.81;118.99
66102;HTU21D;52883;51.094;5.880;2023-09-30T15:15:20;20.77;118.99
66102;HTU21D;52883;51.094;5.880;2023-09-30T15:17:46;20.74;118.99
66102;HTU21D;52883;51.094;5.880;2023-09-30T15:20:12;20.72;118.99
66102;HTU21D;52883;51.094;5.880;2023-09-30T15:22:38;20.71;118.99
66102;HTU21D;52883;51.094;5.880;2023-09-30T15:25:04;20.64;118.99
66102;HTU21D;52883;51.094;5.880;2023-09-30T15:27:30;20.56;118.99
66102;HTU21D;52883;51.094;5.880;2023-09-30T15:29:58;20.44;118.99
66102;HTU21D;52883;51.094;5.880;2023-09-30T15:32:24;20.29;118.99
66102;HTU21D;52883;51.094;5.880;2023-09-30T15:34:50;20.15;118.99
66102;HTU21D;52883;51.094;5.880;2023-09-30T15:37:15;20.01;118.99